Time;durP1;ratioP1;P1;durP2;ratioP2;P2;SDS_P1;SDS_P2;PMS_P1;PMS_P2;Temp;Humidity;BMP_temperature;BMP_pressure;BME280_temperature;BME280_humidity;BME280_pressure;Samples;Min_cycle;Max_cycle;Signal;HPM_P1;HPM_P2
2024/01/26 00:01:01;;;;;;;4.20;3.13;;;;;;;;;;5069420;28;20080;-85
2024/01/26 00:03:28;;;;;;;7.95;3.85;;;;;;;;;;5085942;28;20052;-85
2024/01/26 00:05:55;;;;;;;4.35;3.63;;;;;;;;;;5067200;28;20095;-85
2024/01/26 00:08:22;;;;;;;3.88;3.05;;;;;;;;;;5072659;28;20069;-86
2024/01/26 00:10:48;;;;;;;5.18;2.75;;;;;;;;;;5072929;28;20045;-84
2024/01/26 00:13:15;;;;;;;4.75;2.80;;;;;;;;;;5072979;28;20099;-84
2024/01/26 00:15:45;;;;;;;5.22;3.15;;;;;;;;;;5072301;28;20111;-85
2024/01/26 00:18:12;;;;;;;3.38;2.80;;;;;;;;;;5055947;28;20049;-84
2024/01/26 00:20:39;;;;;;;5.00;2.75;;;;;;;;;;5072505;28;20060;-86
2024/01/26 00:23:05;;;;;;;5.88;2.80;;;;;;;;;;5089061;28;20049;-86
2024/01/26 00:25:32;;;;;;;4.25;2.80;;;;;;;;;;5072388;28;20128;-84
2024/01/26 00:27:58;;;;;;;4.68;3.05;;;;;;;;;;5072132;28;20080;-85
2024/01/26 00:30:25;;;;;;;4.53;2.72;;;;;;;;;;5055257;28;20064;-86
2024/01/26 00:32:54;;;;;;;2.67;2.20;;;;;;;;;;5074537;28;20054;-84
2024/01/26 00:35:21;;;;;;;3.58;2.47;;;;;;;;;;5095022;28;20053;-83
2024/01/26 00:37:47;;;;;;;5.47;3.10;;;;;;;;;;5079031;28;20079;-82
2024/01/26 00:40:14;;;;;;;4.05;2.83;;;;;;;;;;5078162;28;20597;-82
2024/01/26 00:42:41;;;;;;;4.03;2.30;;;;;;;;;;5077478;28;20110;-83
2024/01/26 00:45:07;;;;;;;2.58;2.30;;;;;;;;;;5056143;28;20052;-88
2024/01/26 00:47:34;;;;;;;6.28;2.85;;;;;;;;;;5072626;28;20088;-88
2024/01/26 00:50:01;;;;;;;4.68;3.40;;;;;;;;;;5072360;28;20051;-89
2024/01/26 00:52:27;;;;;;;8.13;3.90;;;;;;;;;;5072183;28;20052;-86
2024/01/26 00:54:54;;;;;;;9.60;4.60;;;;;;;;;;5071916;28;20131;-86
2024/01/26 00:57:21;;;;;;;7.97;4.45;;;;;;;;;;5055409;28;20059;-85
2024/01/26 00:59:48;;;;;;;7.57;4.25;;;;;;;;;;5071650;28;20520;-85
2024/01/26 01:02:14;;;;;;;8.15;3.92;;;;;;;;;;5072487;28;20055;-85
2024/01/26 01:04:41;;;;;;;5.88;3.90;;;;;;;;;;5059345;28;20057;-86
2024/01/26 01:07:07;;;;;;;6.38;3.60;;;;;;;;;;5062831;28;20045;-85
2024/01/26 01:09:34;;;;;;;4.53;3.33;;;;;;;;;;5075832;28;20132;-85
2024/01/26 01:12:02;;;;;;;6.50;3.83;;;;;;;;;;5078152;28;20044;-89
2024/01/26 01:14:29;;;;;;;5.18;3.10;;;;;;;;;;5089822;28;20184;-89
2024/01/26 01:16:56;;;;;;;2.08;1.50;;;;;;;;;;5087497;28;20044;-86
2024/01/26 01:19:23;;;;;;;2.78;1.73;;;;;;;;;;5070818;28;20498;-86
2024/01/26 01:21:50;;;;;;;2.47;1.73;;;;;;;;;;5054632;28;20053;-86
2024/01/26 01:24:16;;;;;;;1.73;1.33;;;;;;;;;;5070977;28;20072;-86
2024/01/26 01:26:43;;;;;;;2.53;1.50;;;;;;;;;;5060276;28;20036;-85
2024/01/26 01:29:09;;;;;;;2.47;1.65;;;;;;;;;;5094816;28;20117;-85
2024/01/26 01:31:36;;;;;;;1.95;1.55;;;;;;;;;;5060036;28;20095;-86
2024/01/26 01:34:04;;;;;;;2.13;1.05;;;;;;;;;;5088001;28;20076;-86
2024/01/26 01:36:32;;;;;;;1.05;0.90;;;;;;;;;;5071261;28;20045;-88
2024/01/26 01:38:58;;;;;;;1.02;0.88;;;;;;;;;;5051532;28;20561;-89
2024/01/26 01:41:25;;;;;;;0.98;0.80;;;;;;;;;;5070932;28;20056;-89
2024/01/26 01:43:55;;;;;;;0.75;0.75;;;;;;;;;;5054974;28;20100;-89
2024/01/26 01:46:22;;;;;;;1.75;0.70;;;;;;;;;;5071525;28;20067;-89
2024/01/26 01:48:49;;;;;;;0.68;0.65;;;;;;;;;;5071177;28;20052;-89
2024/01/26 01:51:16;;;;;;;1.30;0.80;;;;;;;;;;5071098;28;20106;-88
2024/01/26 01:53:42;;;;;;;2.22;0.90;;;;;;;;;;5054738;28;20132;-89
2024/01/26 01:56:11;;;;;;;1.58;1.08;;;;;;;;;;5088115;28;20053;-88
2024/01/26 01:58:38;;;;;;;1.27;0.70;;;;;;;;;;5054367;28;20056;-86
2024/01/26 02:01:05;;;;;;;1.73;0.70;;;;;;;;;;5087383;28;20052;-87
2024/01/26 02:03:32;;;;;;;1.48;0.90;;;;;;;;;;5054532;28;20132;-88
2024/01/26 02:05:58;;;;;;;1.23;0.90;;;;;;;;;;5085308;28;20132;-87
2024/01/26 02:08:25;;;;;;;0.90;0.75;;;;;;;;;;5072069;28;20063;-88
2024/01/26 02:10:52;;;;;;;2.13;0.95;;;;;;;;;;5054074;28;20055;-88
2024/01/26 02:13:18;;;;;;;0.85;0.75;;;;;;;;;;5063243;28;20426;-84
2024/01/26 02:15:45;;;;;;;1.95;0.70;;;;;;;;;;5056582;28;20092;-84
2024/01/26 02:18:12;;;;;;;1.77;0.90;;;;;;;;;;5087443;28;20138;-83
2024/01/26 02:20:38;;;;;;;0.90;0.80;;;;;;;;;;5055533;28;20753;-84
2024/01/26 02:23:22;;;;;;;1.48;0.88;;;;;;;;;;5072754;28;20520;-84
2024/01/26 02:25:48;;;;;;;0.98;0.55;;;;;;;;;;5055142;28;20058;-84
2024/01/26 02:28:15;;;;;;;1.30;0.70;;;;;;;;;;5070261;28;20095;-85
2024/01/26 02:30:42;;;;;;;0.77;0.60;;;;;;;;;;5070989;28;20139;-84
2024/01/26 02:33:08;;;;;;;0.60;0.47;;;;;;;;;;5087312;28;20135;-84
2024/01/26 02:35:35;;;;;;;1.67;0.77;;;;;;;;;;5054798;28;20111;-85
2024/01/26 02:38:02;;;;;;;0.85;0.32;;;;;;;;;;5072330;28;20498;-84
2024/01/26 02:40:29;;;;;;;0.70;0.60;;;;;;;;;;5069989;28;20053;-85
2024/01/26 02:42:56;;;;;;;0.85;0.60;;;;;;;;;;5066105;28;20059;-85
2024/01/26 02:45:24;;;;;;;0.75;0.52;;;;;;;;;;5086156;28;20143;-86
2024/01/26 02:47:50;;;;;;;1.15;0.68;;;;;;;;;;5075971;28;20110;-83
2024/01/26 02:50:17;;;;;;;0.93;0.60;;;;;;;;;;5059670;28;20049;-83
2024/01/26 02:52:44;;;;;;;0.60;0.50;;;;;;;;;;5076108;28;20053;-82
2024/01/26 02:55:11;;;;;;;1.38;0.77;;;;;;;;;;5091584;28;20053;-83
2024/01/26 02:57:37;;;;;;;0.40;0.40;;;;;;;;;;5074371;28;20097;-83
2024/01/26 03:00:04;;;;;;;1.17;0.50;;;;;;;;;;5074823;28;20056;-85
2024/01/26 03:02:31;;;;;;;0.90;0.47;;;;;;;;;;5074008;28;20061;-83
2024/01/26 03:04:58;;;;;;;0.80;0.70;;;;;;;;;;5076763;28;20063;-82
2024/01/26 03:07:25;;;;;;;0.82;0.70;;;;;;;;;;5058916;28;20056;-82
2024/01/26 03:09:51;;;;;;;1.88;0.73;;;;;;;;;;5058035;28;20102;-84
2024/01/26 03:12:18;;;;;;;1.05;0.70;;;;;;;;;;5074939;28;20045;-83
2024/01/26 03:14:44;;;;;;;3.38;0.70;;;;;;;;;;5075499;28;20076;-83
2024/01/26 03:17:11;;;;;;;2.17;0.80;;;;;;;;;;5059028;28;20071;-83
2024/01/26 03:19:38;;;;;;;1.88;0.80;;;;;;;;;;5075005;28;20064;-84
2024/01/26 03:22:04;;;;;;;0.57;0.55;;;;;;;;;;5074870;28;20060;-84
2024/01/26 03:24:31;;;;;;;0.70;0.70;;;;;;;;;;5068337;28;20581;-81
2024/01/26 03:26:58;;;;;;;2.00;0.90;;;;;;;;;;5075667;28;20054;-81
2024/01/26 03:29:25;;;;;;;0.80;0.73;;;;;;;;;;5091655;28;20118;-80
2024/01/26 03:31:52;;;;;;;1.10;0.60;;;;;;;;;;5058670;28;20065;-80
2024/01/26 03:34:18;;;;;;;0.93;0.85;;;;;;;;;;5072199;28;20503;-81
2024/01/26 03:36:45;;;;;;;1.40;0.90;;;;;;;;;;5056141;28;20067;-78
2024/01/26 03:39:12;;;;;;;1.05;0.70;;;;;;;;;;5078881;28;20066;-83
2024/01/26 03:41:40;;;;;;;0.68;0.55;;;;;;;;;;5084072;28;20106;-82
2024/01/26 03:44:11;;;;;;;1.58;0.85;;;;;;;;;;5074239;28;20401;-83
2024/01/26 03:46:42;;;;;;;1.58;0.60;;;;;;;;;;5065361;28;20044;-84
2024/01/26 03:49:09;;;;;;;3.65;0.98;;;;;;;;;;5058785;28;20044;-85
2024/01/26 03:51:36;;;;;;;1.70;0.60;;;;;;;;;;5095439;28;20048;-85
2024/01/26 03:54:03;;;;;;;0.60;0.60;;;;;;;;;;5076476;28;20041;-84
2024/01/26 03:56:29;;;;;;;2.15;0.75;;;;;;;;;;5064876;28;20136;-85
2024/01/26 03:58:56;;;;;;;0.80;0.80;;;;;;;;;;5078976;28;20436;-84
2024/01/26 04:01:23;;;;;;;2.78;1.00;;;;;;;;;;5079819;28;20056;-84
2024/01/26 04:03:49;;;;;;;1.85;0.85;;;;;;;;;;5054369;28;20056;-84
2024/01/26 04:06:16;;;;;;;2.65;0.93;;;;;;;;;;5073082;28;20052;-85
2024/01/26 04:08:44;;;;;;;1.67;1.13;;;;;;;;;;5066229;28;20102;-85
2024/01/26 04:11:10;;;;;;;2.70;0.88;;;;;;;;;;5080212;28;20052;-83
2024/01/26 04:13:37;;;;;;;1.60;1.00;;;;;;;;;;5076095;28;20048;-83
2024/01/26 04:16:05;;;;;;;2.03;1.15;;;;;;;;;;5076733;28;20055;-84
2024/01/26 04:18:32;;;;;;;0.90;0.90;;;;;;;;;;5054153;28;20048;-85
2024/01/26 04:20:59;;;;;;;2.85;1.00;;;;;;;;;;5072779;28;20049;-86
2024/01/26 04:23:26;;;;;;;1.40;0.85;;;;;;;;;;5073969;28;20498;-86
2024/01/26 04:25:52;;;;;;;0.98;0.90;;;;;;;;;;5084515;28;20048;-83
2024/01/26 04:28:19;;;;;;;1.20;1.02;;;;;;;;;;5083960;28;20070;-82
2024/01/26 04:30:46;;;;;;;0.90;0.90;;;;;;;;;;5082210;28;20079;-82
2024/01/26 04:33:12;;;;;;;2.25;1.25;;;;;;;;;;5058826;28;20187;-88
2024/01/26 04:35:39;;;;;;;1.10;0.82;;;;;;;;;;5054418;28;20099;-88
2024/01/26 04:38:07;;;;;;;1.10;0.82;;;;;;;;;;5069491;28;20053;-88
2024/01/26 04:40:34;;;;;;;1.35;0.88;;;;;;;;;;5070983;28;20060;-83
2024/01/26 04:43:01;;;;;;;0.93;0.82;;;;;;;;;;5078113;28;20060;-84
2024/01/26 04:45:27;;;;;;;2.22;0.70;;;;;;;;;;5054473;28;20053;-84
2024/01/26 04:47:54;;;;;;;1.70;0.80;;;;;;;;;;5068823;28;20464;-84
2024/01/26 04:50:21;;;;;;;3.17;0.70;;;;;;;;;;5055514;28;20427;-84
2024/01/26 04:52:49;;;;;;;1.00;0.55;;;;;;;;;;5075261;28;20098;-84
2024/01/26 04:55:16;;;;;;;4.05;0.88;;;;;;;;;;5056647;28;20577;-84
2024/01/26 04:57:43;;;;;;;1.85;0.90;;;;;;;;;;5059270;28;20063;-83
2024/01/26 05:00:09;;;;;;;1.38;0.55;;;;;;;;;;5076121;28;20056;-84
2024/01/26 05:02:36;;;;;;;1.15;1.02;;;;;;;;;;5055558;28;20056;-86
2024/01/26 05:05:03;;;;;;;1.05;0.73;;;;;;;;;;5071737;28;20052;-86
2024/01/26 05:07:30;;;;;;;2.78;1.33;;;;;;;;;;5071951;28;20088;-86
2024/01/26 05:09:56;;;;;;;6.45;4.30;;;;;;;;;;5071609;28;20056;-85
2024/01/26 05:12:23;;;;;;;2.40;2.20;;;;;;;;;;5086370;28;20052;-83
2024/01/26 05:14:49;;;;;;;1.42;1.13;;;;;;;;;;5077479;28;20133;-83
2024/01/26 05:17:17;;;;;;;1.92;0.93;;;;;;;;;;5097356;28;20056;-83
2024/01/26 05:19:43;;;;;;;1.25;0.88;;;;;;;;;;5078464;28;20084;-83
2024/01/26 05:22:10;;;;;;;1.15;1.05;;;;;;;;;;5079976;28;20063;-83
2024/01/26 05:24:37;;;;;;;3.10;1.13;;;;;;;;;;5079839;28;20041;-83
2024/01/26 05:27:04;;;;;;;2.03;0.80;;;;;;;;;;5073102;28;20053;-84
2024/01/26 05:29:30;;;;;;;1.13;1.02;;;;;;;;;;5063953;28;20057;-84
2024/01/26 05:31:57;;;;;;;0.80;0.80;;;;;;;;;;5070003;28;20045;-85
2024/01/26 05:34:23;;;;;;;1.10;0.85;;;;;;;;;;5081772;28;20045;-83
2024/01/26 05:36:51;;;;;;;0.75;0.70;;;;;;;;;;5057300;28;20561;-85
2024/01/26 05:39:18;;;;;;;2.45;1.05;;;;;;;;;;5068630;28;20094;-86
2024/01/26 05:41:45;;;;;;;0.80;0.57;;;;;;;;;;5048115;28;20136;-84
2024/01/26 05:44:12;;;;;;;2.33;0.80;;;;;;;;;;5071115;28;20067;-85
2024/01/26 05:46:39;;;;;;;2.45;1.17;;;;;;;;;;5070814;28;20059;-85
2024/01/26 05:49:05;;;;;;;0.93;0.63;;;;;;;;;;5059866;28;20060;-83
2024/01/26 05:51:35;;;;;;;2.20;0.80;;;;;;;;;;5083703;28;20052;-85
2024/01/26 05:54:02;;;;;;;0.80;0.80;;;;;;;;;;5075880;28;20048;-85
2024/01/26 05:56:29;;;;;;;2.75;1.00;;;;;;;;;;5067977;28;20053;-87
2024/01/26 05:58:55;;;;;;;3.80;1.30;;;;;;;;;;5072872;28;20052;-86
2024/01/26 06:01:22;;;;;;;1.50;0.98;;;;;;;;;;5069559;28;20316;-85
2024/01/26 06:03:49;;;;;;;1.40;0.98;;;;;;;;;;5075640;28;20098;-86
2024/01/26 06:06:15;;;;;;;1.90;1.15;;;;;;;;;;5070898;28;20056;-85
2024/01/26 06:08:42;;;;;;;1.58;0.90;;;;;;;;;;5052002;28;20594;-86
2024/01/26 06:11:11;;;;;;;2.65;1.48;;;;;;;;;;5070009;28;20562;-85
2024/01/26 06:13:37;;;;;;;2.10;1.40;;;;;;;;;;5078098;28;20750;-85
2024/01/26 06:16:04;;;;;;;1.40;1.05;;;;;;;;;;5083534;28;20045;-85
2024/01/26 06:18:31;;;;;;;1.00;0.88;;;;;;;;;;5070646;28;20053;-87
2024/01/26 06:20:58;;;;;;;1.17;0.95;;;;;;;;;;5071882;28;20052;-85
2024/01/26 06:23:25;;;;;;;1.27;0.98;;;;;;;;;;5071232;28;20132;-86
2024/01/26 06:25:52;;;;;;;2.20;0.80;;;;;;;;;;5072149;28;20189;-85
2024/01/26 06:28:18;;;;;;;1.58;0.90;;;;;;;;;;5050397;28;20041;-85
2024/01/26 06:30:45;;;;;;;4.22;1.95;;;;;;;;;;5072176;28;20084;-84
2024/01/26 06:33:12;;;;;;;4.20;1.27;;;;;;;;;;5094485;28;20055;-85
2024/01/26 06:35:39;;;;;;;1.48;0.88;;;;;;;;;;5057398;28;20078;-85
2024/01/26 06:38:06;;;;;;;1.23;1.10;;;;;;;;;;5067547;28;20053;-84
2024/01/26 06:40:33;;;;;;;1.30;1.00;;;;;;;;;;5069866;28;20122;-84
2024/01/26 06:43:05;;;;;;;1.58;1.10;;;;;;;;;;5074663;28;20052;-84
2024/01/26 06:45:32;;;;;;;2.42;0.90;;;;;;;;;;5071122;28;20064;-88
2024/01/26 06:47:59;;;;;;;1.42;0.90;;;;;;;;;;5074968;28;20531;-82
2024/01/26 06:50:26;;;;;;;2.80;1.10;;;;;;;;;;5060891;28;20048;-87
2024/01/26 06:52:53;;;;;;;2.15;1.05;;;;;;;;;;5073865;28;20445;-84
2024/01/26 06:55:19;;;;;;;3.42;1.05;;;;;;;;;;5057745;28;20056;-87
2024/01/26 06:57:46;;;;;;;1.60;0.90;;;;;;;;;;5085035;28;20057;-88
2024/01/26 07:00:13;;;;;;;0.95;0.77;;;;;;;;;;5070206;28;20079;-87
2024/01/26 07:02:40;;;;;;;1.60;0.90;;;;;;;;;;5071173;28;20051;-86
2024/01/26 07:05:06;;;;;;;0.90;0.80;;;;;;;;;;5062617;28;20049;-85
2024/01/26 07:07:33;;;;;;;0.52;0.52;;;;;;;;;;5068998;28;20056;-85
2024/01/26 07:10:00;;;;;;;1.88;0.70;;;;;;;;;;5069545;28;20052;-84
2024/01/26 07:12:26;;;;;;;1.05;0.70;;;;;;;;;;5071491;28;20075;-86
2024/01/26 07:14:53;;;;;;;0.77;0.60;;;;;;;;;;5072114;28;20056;-86
2024/01/26 07:17:20;;;;;;;0.90;0.77;;;;;;;;;;5087779;28;20048;-84
2024/01/26 07:19:46;;;;;;;0.60;0.60;;;;;;;;;;5076082;28;20049;-84
2024/01/26 07:22:13;;;;;;;1.08;0.70;;;;;;;;;;5073691;28;20411;-83
2024/01/26 07:24:40;;;;;;;1.27;0.75;;;;;;;;;;5076367;28;20749;-85
2024/01/26 07:27:06;;;;;;;2.28;0.47;;;;;;;;;;5074757;28;20675;-84
2024/01/26 07:29:33;;;;;;;1.88;0.60;;;;;;;;;;5073829;28;20056;-84
2024/01/26 07:31:59;;;;;;;1.63;1.20;;;;;;;;;;5075539;28;20071;-84
2024/01/26 07:34:26;;;;;;;1.35;0.80;;;;;;;;;;5073872;28;20072;-85
2024/01/26 07:36:57;;;;;;;3.65;1.40;;;;;;;;;;5057511;28;20055;-85
2024/01/26 07:39:26;;;;;;;2.15;0.93;;;;;;;;;;5073818;28;20048;-85
2024/01/26 07:41:53;;;;;;;1.15;0.70;;;;;;;;;;5072179;28;20293;-87
2024/01/26 07:44:20;;;;;;;2.72;1.48;;;;;;;;;;5087277;28;20056;-87
2024/01/26 07:46:47;;;;;;;3.88;1.42;;;;;;;;;;5072078;28;20055;-87
2024/01/26 07:49:13;;;;;;;2.60;1.60;;;;;;;;;;5069945;28;20056;-86
2024/01/26 07:51:41;;;;;;;6.40;2.90;;;;;;;;;;5055682;28;20116;-88
2024/01/26 07:54:07;;;;;;;5.35;2.35;;;;;;;;;;5071687;28;20057;-88
2024/01/26 07:56:34;;;;;;;9.13;3.22;;;;;;;;;;5071849;28;20079;-83
2024/01/26 07:59:01;;;;;;;2.55;1.20;;;;;;;;;;5090392;28;20057;-85
2024/01/26 08:01:28;;;;;;;3.08;1.60;;;;;;;;;;5071861;28;20052;-79
2024/01/26 08:03:55;;;;;;;2.00;0.77;;;;;;;;;;5073270;28;20585;-82
2024/01/26 08:06:22;;;;;;;1.08;0.82;;;;;;;;;;5092957;28;20087;-78
2024/01/26 08:08:49;;;;;;;1.08;0.70;;;;;;;;;;5082973;28;20039;-81
2024/01/26 08:11:18;;;;;;;1.15;0.80;;;;;;;;;;5091912;28;20070;-84
2024/01/26 08:13:45;;;;;;;0.70;0.70;;;;;;;;;;5056163;28;20049;-87
2024/01/26 08:16:15;;;;;;;1.33;0.68;;;;;;;;;;5059047;28;20056;-84
2024/01/26 08:18:45;;;;;;;0.63;0.57;;;;;;;;;;5076461;28;20116;-81
2024/01/26 08:21:12;;;;;;;0.90;0.50;;;;;;;;;;5091676;28;20055;-81
2024/01/26 08:23:39;;;;;;;1.33;0.60;;;;;;;;;;5083324;28;20048;-81
2024/01/26 08:26:06;;;;;;;0.40;0.40;;;;;;;;;;5078491;28;20079;-79
2024/01/26 08:28:33;;;;;;;1.45;1.10;;;;;;;;;;5078781;28;20052;-79
2024/01/26 08:31:00;;;;;;;1.65;0.82;;;;;;;;;;5065227;28;20377;-78
2024/01/26 08:33:26;;;;;;;1.00;0.60;;;;;;;;;;5083153;28;20040;-79
2024/01/26 08:35:53;;;;;;;0.82;0.63;;;;;;;;;;5083723;28;20052;-79
2024/01/26 08:38:20;;;;;;;1.75;0.65;;;;;;;;;;5083549;28;20053;-79
2024/01/26 08:40:47;;;;;;;0.70;0.68;;;;;;;;;;5084337;28;20060;-80
2024/01/26 08:43:14;;;;;;;0.93;0.70;;;;;;;;;;5078502;28;20049;-78
2024/01/26 08:45:40;;;;;;;0.70;0.70;;;;;;;;;;5078714;28;20123;-79
2024/01/26 08:48:07;;;;;;;0.60;0.50;;;;;;;;;;5080543;28;20098;-80
2024/01/26 08:50:36;;;;;;;1.13;0.50;;;;;;;;;;5078581;28;20528;-80
2024/01/26 08:53:03;;;;;;;1.95;0.95;;;;;;;;;;5067471;28;20051;-80
2024/01/26 08:55:31;;;;;;;2.22;0.90;;;;;;;;;;5059593;28;20094;-84
2024/01/26 08:57:57;;;;;;;1.85;0.60;;;;;;;;;;5076007;28;20094;-81
2024/01/26 09:00:24;;;;;;;0.73;0.55;;;;;;;;;;5056358;28;20057;-82
2024/01/26 09:02:51;;;;;;;0.98;0.60;;;;;;;;;;5077496;28;20497;-81
2024/01/26 09:05:17;;;;;;;1.10;1.00;;;;;;;;;;5079564;28;20076;-80
2024/01/26 09:07:44;;;;;;;0.77;0.60;;;;;;;;;;5078072;28;20048;-80
2024/01/26 09:10:11;;;;;;;0.80;0.52;;;;;;;;;;5059371;28;20147;-80
2024/01/26 09:12:37;;;;;;;2.10;0.90;;;;;;;;;;5079458;28;20398;-80
2024/01/26 09:15:04;;;;;;;1.73;0.60;;;;;;;;;;5076609;28;20072;-80
2024/01/26 09:17:31;;;;;;;1.73;0.95;;;;;;;;;;5078221;28;20522;-80
2024/01/26 09:19:58;;;;;;;2.20;0.75;;;;;;;;;;5064058;28;20055;-80
2024/01/26 09:22:25;;;;;;;1.02;0.55;;;;;;;;;;5079188;28;20052;-80
2024/01/26 09:24:51;;;;;;;1.38;1.08;;;;;;;;;;5069661;28;20052;-80
2024/01/26 09:27:20;;;;;;;0.68;0.52;;;;;;;;;;5062302;28;20044;-80
2024/01/26 09:29:47;;;;;;;0.75;0.60;;;;;;;;;;5068068;28;20053;-80
2024/01/26 09:32:14;;;;;;;3.63;0.82;;;;;;;;;;5079100;28;20048;-80
2024/01/26 09:34:40;;;;;;;0.60;0.50;;;;;;;;;;5062432;28;20055;-80
2024/01/26 09:37:07;;;;;;;3.45;0.85;;;;;;;;;;5078255;28;20406;-80
2024/01/26 09:39:34;;;;;;;1.15;0.47;;;;;;;;;;5058989;28;20048;-80
2024/01/26 09:42:01;;;;;;;1.33;0.70;;;;;;;;;;5075079;28;20058;-80
2024/01/26 09:44:27;;;;;;;1.23;0.82;;;;;;;;;;5074773;28;20071;-80
2024/01/26 09:46:54;;;;;;;0.68;0.60;;;;;;;;;;5075650;28;20064;-80
2024/01/26 09:49:21;;;;;;;0.60;0.60;;;;;;;;;;5055941;28;20056;-80
2024/01/26 09:51:48;;;;;;;1.38;0.85;;;;;;;;;;5074999;28;20082;-80
2024/01/26 09:54:14;;;;;;;1.80;0.80;;;;;;;;;;5057639;28;20045;-80
2024/01/26 09:56:41;;;;;;;2.72;1.13;;;;;;;;;;5073735;28;20040;-79
2024/01/26 09:59:08;;;;;;;4.00;1.13;;;;;;;;;;5057512;28;20059;-80
2024/01/26 10:01:35;;;;;;;3.75;1.30;;;;;;;;;;5069253;28;20139;-80
2024/01/26 10:04:02;;;;;;;1.80;1.08;;;;;;;;;;5075244;28;20525;-80
2024/01/26 10:06:29;;;;;;;1.80;0.80;;;;;;;;;;5058936;28;20044;-80
2024/01/26 10:08:56;;;;;;;1.63;1.25;;;;;;;;;;5074752;28;20062;-80
2024/01/26 10:11:23;;;;;;;1.88;0.90;;;;;;;;;;5060316;28;20065;-80
2024/01/26 10:13:49;;;;;;;1.05;0.60;;;;;;;;;;5057976;28;20510;-80
2024/01/26 10:16:16;;;;;;;1.38;0.95;;;;;;;;;;5053951;28;20055;-77
2024/01/26 10:18:44;;;;;;;1.92;0.70;;;;;;;;;;5067336;28;20094;-77
2024/01/26 10:21:11;;;;;;;2.00;0.80;;;;;;;;;;5068521;28;20051;-75
2024/01/26 10:23:39;;;;;;;1.15;0.75;;;;;;;;;;5068613;28;20052;-75
2024/01/26 10:26:06;;;;;;;6.30;1.65;;;;;;;;;;5068186;28;20048;-75
2024/01/26 10:28:33;;;;;;;1.15;0.70;;;;;;;;;;5064738;28;20044;-76
2024/01/26 10:31:00;;;;;;;1.17;0.85;;;;;;;;;;5050682;28;20048;-75
2024/01/26 10:33:28;;;;;;;0.77;0.50;;;;;;;;;;5051461;28;20052;-76
2024/01/26 10:36:00;;;;;;;1.15;0.68;;;;;;;;;;5072077;28;20083;-82
2024/01/26 10:38:30;;;;;;;3.97;0.70;;;;;;;;;;5056600;28;20127;-83
2024/01/26 10:41:01;;;;;;;0.80;0.68;;;;;;;;;;5056169;28;20098;-84
2024/01/26 10:43:28;;;;;;;1.38;0.70;;;;;;;;;;5056264;28;20044;-81
2024/01/26 10:45:59;;;;;;;1.65;0.73;;;;;;;;;;5053875;28;20054;-81
2024/01/26 10:48:26;;;;;;;1.08;0.70;;;;;;;;;;5076208;28;20048;-81
2024/01/26 10:50:54;;;;;;;2.53;0.70;;;;;;;;;;5062182;28;20051;-82
2024/01/26 10:53:26;;;;;;;1.70;0.85;;;;;;;;;;5082936;28;20029;-81
2024/01/26 10:59:30;;;;;;;0.93;0.60;;;;;;;;;;5098382;28;20024;-82
2024/01/26 11:02:01;;;;;;;2.00;0.75;;;;;;;;;;5093726;28;20037;-82
2024/01/26 11:04:33;;;;;;;1.23;0.70;;;;;;;;;;5080869;28;20044;-82
2024/01/26 11:07:22;;;;;;;3.00;0.95;;;;;;;;;;5080793;28;20129;-81
2024/01/26 11:09:49;;;;;;;1.90;0.60;;;;;;;;;;5090984;28;20061;-81
2024/01/26 11:12:20;;;;;;;2.05;0.80;;;;;;;;;;5078351;28;20040;-81
2024/01/26 11:15:24;;;;;;;1.10;0.60;;;;;;;;;;5076310;28;20127;-81
2024/01/26 11:17:51;;;;;;;9.23;5.35;;;;;;;;;;5096947;28;20032;-80
2024/01/26 11:20:25;;;;;;;2.55;2.33;;;;;;;;;;5088608;28;20033;-81
2024/01/26 11:23:02;;;;;;;2.40;1.30;;;;;;;;;;5077350;28;20071;-81
2024/01/26 11:25:37;;;;;;;0.77;0.65;;;;;;;;;;5083653;28;20151;-81
2024/01/26 11:28:04;;;;;;;2.72;1.13;;;;;;;;;;5077694;28;20044;-81
2024/01/26 11:30:40;;;;;;;1.40;0.60;;;;;;;;;;5086121;28;20044;-81
2024/01/26 11:33:17;;;;;;;1.38;0.75;;;;;;;;;;5089096;28;20070;-81
2024/01/26 11:35:45;;;;;;;0.90;0.80;;;;;;;;;;5076054;28;20056;-81
2024/01/26 11:38:13;;;;;;;1.00;0.60;;;;;;;;;;5105000;28;20034;-80
2024/01/26 11:40:45;;;;;;;1.63;1.38;;;;;;;;;;5080081;28;20043;-81
2024/01/26 11:43:12;;;;;;;2.63;2.03;;;;;;;;;;5079999;28;20040;-81
2024/01/26 11:45:39;;;;;;;1.38;1.08;;;;;;;;;;5091054;28;20040;-81
2024/01/26 11:48:07;;;;;;;1.00;0.90;;;;;;;;;;5094315;28;20055;-82
2024/01/26 11:50:35;;;;;;;0.68;0.68;;;;;;;;;;5085237;28;20108;-80
2024/01/26 11:53:04;;;;;;;1.98;0.60;;;;;;;;;;5087851;28;20060;-79
2024/01/26 11:55:31;;;;;;;0.93;0.50;;;;;;;;;;5085061;28;20067;-82
2024/01/26 11:57:59;;;;;;;0.47;0.47;;;;;;;;;;5093737;28;20032;-81
2024/01/26 12:00:29;;;;;;;1.35;0.50;;;;;;;;;;5074488;28;20072;-82
2024/01/26 12:02:56;;;;;;;0.50;0.50;;;;;;;;;;5080632;28;20040;-80
2024/01/26 12:05:23;;;;;;;0.88;0.65;;;;;;;;;;5079624;28;20052;-79
2024/01/26 12:07:51;;;;;;;0.90;0.70;;;;;;;;;;5079254;28;20060;-84
2024/01/26 12:10:19;;;;;;;2.08;0.65;;;;;;;;;;5080212;28;20113;-84
2024/01/26 12:12:48;;;;;;;0.77;0.55;;;;;;;;;;5095427;28;20056;-85
2024/01/26 12:15:15;;;;;;;0.70;0.70;;;;;;;;;;5078809;28;20055;-85
2024/01/26 12:17:42;;;;;;;0.60;0.60;;;;;;;;;;5077331;28;20075;-86
2024/01/26 12:20:09;;;;;;;0.80;0.65;;;;;;;;;;5085910;28;20052;-85
2024/01/26 12:22:37;;;;;;;1.95;0.93;;;;;;;;;;5090426;28;20108;-84
2024/01/26 12:25:06;;;;;;;1.63;0.70;;;;;;;;;;5080678;28;20056;-88
2024/01/26 12:27:34;;;;;;;0.70;0.70;;;;;;;;;;5076655;28;20127;-85
2024/01/26 12:30:00;;;;;;;0.52;0.52;;;;;;;;;;5060158;28;20113;-85
2024/01/26 12:32:27;;;;;;;0.70;0.70;;;;;;;;;;5059194;28;20491;-85
2024/01/26 12:34:54;;;;;;;0.50;0.50;;;;;;;;;;5076428;28;20049;-87
2024/01/26 12:37:21;;;;;;;1.88;0.70;;;;;;;;;;5075111;28;20418;-87
2024/01/26 12:39:48;;;;;;;0.50;0.40;;;;;;;;;;5076100;28;20052;-85
2024/01/26 12:42:15;;;;;;;2.17;0.57;;;;;;;;;;5074814;28;20045;-85
2024/01/26 12:44:42;;;;;;;1.85;0.50;;;;;;;;;;5064827;28;20064;-85
2024/01/26 12:47:08;;;;;;;1.05;0.50;;;;;;;;;;5074978;28;20057;-85
2024/01/26 12:49:36;;;;;;;0.35;0.32;;;;;;;;;;5072720;28;20106;-86
2024/01/26 12:52:03;;;;;;;0.40;0.40;;;;;;;;;;5057815;28;20285;-88
2024/01/26 12:54:29;;;;;;;1.27;0.52;;;;;;;;;;5080167;28;20067;-87
2024/01/26 12:56:56;;;;;;;1.30;0.40;;;;;;;;;;5076706;28;20052;-87
2024/01/26 12:59:23;;;;;;;0.70;0.68;;;;;;;;;;5073468;28;20309;-90
2024/01/26 13:01:50;;;;;;;0.40;0.40;;;;;;;;;;5072503;28;20044;-88
2024/01/26 13:04:17;;;;;;;0.60;0.60;;;;;;;;;;5055671;28;20053;-82
2024/01/26 13:06:45;;;;;;;0.93;0.60;;;;;;;;;;5074173;28;20055;-85
2024/01/26 13:09:12;;;;;;;0.40;0.40;;;;;;;;;;5059316;28;20048;-87
2024/01/26 13:11:39;;;;;;;0.77;0.57;;;;;;;;;;5074562;28;20094;-85
2024/01/26 13:14:06;;;;;;;2.60;0.40;;;;;;;;;;5058852;28;20052;-86
2024/01/26 13:16:34;;;;;;;2.65;0.60;;;;;;;;;;5074088;28;20120;-86
2024/01/26 13:19:00;;;;;;;0.55;0.55;;;;;;;;;;5069470;28;20053;-88
2024/01/26 13:21:27;;;;;;;0.82;0.50;;;;;;;;;;5072801;28;20529;-84
2024/01/26 13:23:54;;;;;;;0.60;0.50;;;;;;;;;;5082775;28;20061;-83
2024/01/26 13:26:21;;;;;;;1.10;0.60;;;;;;;;;;5077172;28;20052;-85
2024/01/26 13:28:47;;;;;;;0.90;0.88;;;;;;;;;;5073141;28;20049;-81
2024/01/26 13:31:14;;;;;;;1.88;1.13;;;;;;;;;;5069543;28;20465;-84
2024/01/26 13:33:42;;;;;;;3.75;2.08;;;;;;;;;;5054690;28;20554;-85
2024/01/26 13:36:09;;;;;;;0.60;0.60;;;;;;;;;;5053776;28;20080;-85
2024/01/26 13:38:36;;;;;;;0.73;0.60;;;;;;;;;;5051552;28;20525;-85
2024/01/26 13:41:03;;;;;;;0.82;0.30;;;;;;;;;;5053260;28;20045;-84
2024/01/26 13:43:30;;;;;;;0.70;0.52;;;;;;;;;;5060482;28;20053;-85
2024/01/26 13:45:57;;;;;;;3.45;1.40;;;;;;;;;;5071183;28;20052;-85
2024/01/26 13:48:24;;;;;;;2.03;0.80;;;;;;;;;;5069859;28;20110;-84
2024/01/26 13:50:54;;;;;;;0.80;0.68;;;;;;;;;;5062497;28;20118;-83
2024/01/26 13:53:22;;;;;;;2.47;1.00;;;;;;;;;;5051719;28;20049;-85
2024/01/26 13:55:49;;;;;;;2.22;0.95;;;;;;;;;;5062065;28;20052;-84
2024/01/26 13:58:16;;;;;;;1.80;1.27;;;;;;;;;;5065874;28;20499;-87
2024/01/26 14:00:46;;;;;;;1.42;0.95;;;;;;;;;;5054316;28;20056;-86
2024/01/26 14:03:12;;;;;;;1.73;0.95;;;;;;;;;;5054671;28;20468;-84
2024/01/26 14:05:42;;;;;;;0.85;0.65;;;;;;;;;;5070905;28;20417;-84
2024/01/26 14:08:09;;;;;;;1.48;0.90;;;;;;;;;;5051195;28;20523;-84
2024/01/26 14:10:36;;;;;;;1.13;1.02;;;;;;;;;;5068334;28;20118;-84
2024/01/26 14:13:04;;;;;;;6.00;1.63;;;;;;;;;;5052069;28;20509;-84
2024/01/26 14:15:31;;;;;;;1.85;0.82;;;;;;;;;;5068530;28;20080;-84
2024/01/26 14:17:58;;;;;;;1.05;0.70;;;;;;;;;;5069166;28;20072;-84
2024/01/26 14:20:25;;;;;;;2.50;0.70;;;;;;;;;;5116203;22;20546;-84
2024/01/26 14:22:54;;;;;;;1.27;0.68;;;;;;;;;;5002937;28;20054;-84
2024/01/26 14:25:21;;;;;;;0.50;0.50;;;;;;;;;;5001774;28;20598;-84
2024/01/26 14:27:49;;;;;;;0.55;0.50;;;;;;;;;;5026323;28;20594;-85
2024/01/26 14:30:17;;;;;;;1.38;0.98;;;;;;;;;;5004067;28;20555;-86
2024/01/26 14:32:44;;;;;;;1.00;0.75;;;;;;;;;;4983438;28;20133;-85
2024/01/26 14:35:11;;;;;;;2.47;0.70;;;;;;;;;;5006176;28;20052;-85
2024/01/26 14:37:40;;;;;;;0.77;0.50;;;;;;;;;;5020031;28;20096;-85
2024/01/26 14:40:17;;;;;;;0.45;0.40;;;;;;;;;;5023556;28;20138;-84
2024/01/26 14:42:45;;;;;;;1.10;0.80;;;;;;;;;;5006462;28;20061;-84
2024/01/26 14:45:13;;;;;;;1.00;0.90;;;;;;;;;;5022115;28;20057;-84
2024/01/26 14:47:40;;;;;;;2.50;0.85;;;;;;;;;;5017869;28;20046;-84